Time;durP1;ratioP1;P1;durP2;ratioP2;P2;SDS_P1;SDS_P2;PMS_P1;PMS_P2;Temp;Humidity;BMP_temperature;BMP_pressure;BME280_temperature;BME280_humidity;BME280_pressure;Samples;Min_cycle;Max_cycle;Signal;HPM_P1;HPM_P2
2021/05/26 00:01:24;;;;;;;3.67;1.63;;;;;;;8.54;70.06;101324.50;5022691;28;20030;-84
2021/05/26 00:03:51;;;;;;;8.57;2.03;;;;;;;8.63;69.97;101337.03;5009827;28;20025;-83
2021/05/26 00:06:17;;;;;;;10.20;2.67;;;;;;;8.51;70.62;101332.84;5009955;28;20030;-83
2021/05/26 00:08:42;;;;;;;5.57;1.98;;;;;;;8.53;70.85;101330.88;5007369;28;20075;-84
2021/05/26 00:11:17;;;;;;;3.95;2.08;;;;;;;8.44;70.67;101321.91;5002926;28;20119;-85
2021/05/26 00:13:44;;;;;;;4.18;1.88;;;;;;;8.32;71.15;101310.47;5000541;28;20467;-86
2021/05/26 00:16:10;;;;;;;3.47;1.95;;;;;;;8.43;71.71;101330.06;5003321;28;20026;-85
2021/05/26 00:18:36;;;;;;;5.78;1.75;;;;;;;8.31;71.54;101319.53;5004719;28;20040;-85
2021/05/26 00:21:03;;;;;;;4.75;1.90;;;;;;;8.21;72.05;101310.69;5003104;28;20026;-85
2021/05/26 00:23:28;;;;;;;3.00;1.80;;;;;;;8.30;71.46;101328.53;5006169;28;20037;-85
2021/05/26 00:25:54;;;;;;;5.88;2.00;;;;;;;8.04;71.55;101293.50;5012456;28;20040;-84
2021/05/26 00:28:19;;;;;;;4.43;2.00;;;;;;;8.24;71.25;101337.16;5003045;28;20428;-84
2021/05/26 00:30:50;;;;;;;6.30;2.05;;;;;;;8.01;71.73;101288.47;4996862;28;20480;-83
2021/05/26 00:33:16;;;;;;;6.18;2.10;;;;;;;8.38;72.08;101344.72;4997851;28;20040;-86
2021/05/26 00:35:42;;;;;;;6.10;2.00;;;;;;;8.35;71.56;101339.66;5007179;28;20087;-85
2021/05/26 00:38:08;;;;;;;4.70;1.92;;;;;;;8.39;71.34;101340.25;5017468;28;20033;-86
2021/05/26 00:40:34;;;;;;;7.18;2.70;;;;;;;8.30;71.01;101330.38;5010179;28;20036;-86
2021/05/26 00:42:59;;;;;;;8.13;3.05;;;;;;;8.21;71.21;101332.09;5008562;28;20499;-85
2021/05/26 00:45:25;;;;;;;4.40;2.28;;;;;;;8.17;71.24;101337.88;5008332;28;20036;-85
2021/05/26 00:47:51;;;;;;;8.45;2.42;;;;;;;8.18;71.14;101339.56;5008963;28;20022;-86
2021/05/26 00:50:24;;;;;;;5.93;2.20;;;;;;;8.25;71.50;101344.19;5009671;28;20039;-85
2021/05/26 00:52:50;;;;;;;3.90;2.33;;;;;;;8.13;71.16;101316.75;5014964;28;20033;-85
2021/05/26 00:55:17;;;;;;;4.78;2.65;;;;;;;8.28;71.74;101337.72;5015868;28;20393;-83
2021/05/26 00:57:44;;;;;;;6.88;3.17;;;;;;;8.25;71.65;101333.47;5014130;28;20093;-86
2021/05/26 01:00:11;;;;;;;4.63;2.65;;;;;;;8.14;72.00;101326.47;5008439;28;20052;-85
2021/05/26 01:02:38;;;;;;;6.72;3.08;;;;;;;8.14;72.04;101336.34;5013936;28;20092;-84
2021/05/26 01:05:08;;;;;;;5.80;2.92;;;;;;;8.14;71.94;101341.72;5011928;28;20069;-85
2021/05/26 01:07:34;;;;;;;6.68;2.83;;;;;;;7.73;72.08;101300.94;5011680;28;20022;-86
2021/05/26 01:10:00;;;;;;;8.45;3.50;;;;;;;7.53;73.03;101299.28;4994263;28;20044;-86
2021/05/26 01:12:26;;;;;;;7.13;2.95;;;;;;;7.40;73.11;101289.72;5009040;28;20048;-86
2021/05/26 01:14:51;;;;;;;6.07;2.72;;;;;;;7.43;72.52;101299.28;5009377;28;20030;-85
2021/05/26 01:17:17;;;;;;;7.38;2.70;;;;;;;7.46;73.22;101299.88;4999609;28;20040;-86
2021/05/26 01:19:42;;;;;;;5.40;2.47;;;;;;;7.56;73.14;101321.25;5016550;28;20022;-85
2021/05/26 01:22:08;;;;;;;4.78;2.63;;;;;;;7.57;72.88;101322.94;5012612;28;20076;-86
2021/05/26 01:24:34;;;;;;;6.63;2.88;;;;;;;7.52;73.62;101322.53;5014830;28;20033;-85
2021/05/26 01:27:00;;;;;;;4.40;2.60;;;;;;;7.50;73.78;101329.84;5025152;28;20524;-85
2021/05/26 01:29:25;;;;;;;4.13;2.17;;;;;;;7.40;73.93;101316.47;5010313;28;20084;-85
2021/05/26 01:31:53;;;;;;;7.93;2.67;;;;;;;7.41;73.97;101333.34;5024779;28;20034;-85
2021/05/26 01:34:18;;;;;;;8.43;3.20;;;;;;;7.39;74.62;101330.84;5014889;28;20110;-85
2021/05/26 01:36:44;;;;;;;6.80;3.50;;;;;;;7.29;74.03;101313.94;5032617;28;20465;-85
2021/05/26 01:39:09;;;;;;;8.77;3.60;;;;;;;7.30;74.57;101329.00;5006782;28;20109;-86
2021/05/26 01:41:35;;;;;;;7.75;3.20;;;;;;;7.22;73.46;101331.53;5027831;28;20048;-85
2021/05/26 01:44:02;;;;;;;9.43;2.92;;;;;;;7.16;75.24;101343.63;4995792;28;20025;-85
2021/05/26 01:46:27;;;;;;;11.07;2.90;;;;;;;6.89;75.48;101314.91;5011448;28;20030;-86
2021/05/26 01:48:52;;;;;;;5.10;3.00;;;;;;;7.00;75.62;101337.97;5011387;28;20067;-86
2021/05/26 01:51:18;;;;;;;7.40;2.95;;;;;;;7.09;75.75;101347.84;5013333;28;20552;-85
2021/05/26 01:53:44;;;;;;;6.85;3.45;;;;;;;7.08;75.07;101348.00;4996614;28;20294;-85
2021/05/26 01:56:21;;;;;;;7.75;2.97;;;;;;;6.92;75.47;101329.81;5012913;28;20037;-85
2021/05/26 01:58:51;;;;;;;8.00;3.13;;;;;;;6.91;76.13;101349.53;5020241;28;20025;-85
2021/05/26 02:01:21;;;;;;;8.43;2.80;;;;;;;6.90;75.50;101340.63;5010359;28;20097;-85
2021/05/26 02:03:48;;;;;;;5.75;2.60;;;;;;;6.94;75.95;101342.06;5010824;28;20109;-85
2021/05/26 02:06:14;;;;;;;5.82;2.33;;;;;;;6.79;75.32;101314.03;5004172;28;20400;-85
2021/05/26 02:08:40;;;;;;;6.75;2.60;;;;;;;6.86;75.26;101333.06;5011582;28;20049;-86
2021/05/26 02:13:49;;;;;;;6.30;2.15;;;;;;;6.88;75.67;101344.41;5015864;28;20033;-84
2021/05/26 02:16:15;;;;;;;4.93;2.22;;;;;;;6.82;75.61;101335.97;5013972;28;20018;-86
2021/05/26 02:18:40;;;;;;;5.32;2.35;;;;;;;6.82;75.57;101346.66;5028804;28;20084;-84
2021/05/26 02:21:06;;;;;;;6.10;2.38;;;;;;;6.69;75.62;101339.88;4996372;28;20030;-83
2021/05/26 02:23:31;;;;;;;6.53;2.47;;;;;;;6.66;75.37;101345.50;5032601;28;20030;-83
2021/05/26 02:25:57;;;;;;;4.75;2.50;;;;;;;6.51;75.73;101337.00;5017643;28;20030;-83
2021/05/26 02:28:22;;;;;;;4.20;2.47;;;;;;;6.42;75.63;101327.97;5014424;28;20022;-86
2021/05/26 02:30:48;;;;;;;3.97;2.38;;;;;;;6.26;76.29;101335.66;5016468;28;20489;-85
2021/05/26 02:33:13;;;;;;;5.03;2.28;;;;;;;6.25;76.87;101341.97;5016266;28;20515;-85
2021/05/26 02:35:38;;;;;;;6.78;3.00;;;;;;;6.28;76.95;101344.38;5032783;28;20021;-85
2021/05/26 02:38:04;;;;;;;4.55;2.50;;;;;;;6.13;76.40;101323.34;5005555;28;20029;-85
2021/05/26 02:40:33;;;;;;;3.67;2.60;;;;;;;6.30;76.41;101353.09;5009944;28;20026;-86
2021/05/26 02:42:59;;;;;;;6.30;2.80;;;;;;;6.21;76.54;101340.53;4993842;28;20121;-85
2021/05/26 02:45:24;;;;;;;4.07;2.75;;;;;;;6.29;75.63;101362.09;5006537;28;20905;-85
2021/05/26 02:47:49;;;;;;;2.85;2.08;;;;;;;6.20;76.18;101358.41;4993089;28;20026;-85
2021/05/26 02:50:18;;;;;;;5.68;2.10;;;;;;;6.19;76.96;101367.38;4993988;28;20068;-85
2021/05/26 02:52:45;;;;;;;5.68;2.38;;;;;;;6.16;77.09;101364.97;5015780;28;20076;-85
2021/05/26 02:55:13;;;;;;;5.13;2.42;;;;;;;6.16;76.69;101357.78;4993344;28;20034;-85
2021/05/26 02:57:38;;;;;;;4.22;2.30;;;;;;;6.17;77.37;101358.66;5016058;28;20085;-85
2021/05/26 03:00:06;;;;;;;4.43;2.10;;;;;;;6.10;76.93;101354.81;5010776;28;20090;-85
2021/05/26 03:02:31;;;;;;;3.25;2.45;;;;;;;6.05;76.42;101360.53;5009219;28;20400;-85
2021/05/26 03:04:57;;;;;;;4.32;2.30;;;;;;;6.04;76.31;101372.22;5030261;28;20089;-85
2021/05/26 03:07:23;;;;;;;6.55;2.53;;;;;;;6.02;76.36;101360.81;4997079;28;20030;-83
2021/05/26 03:09:48;;;;;;;5.53;2.67;;;;;;;5.88;76.24;101347.78;5013314;28;20033;-84
2021/05/26 03:12:14;;;;;;;8.82;2.80;;;;;;;5.98;77.21;101359.41;5009745;28;20421;-84
2021/05/26 03:14:39;;;;;;;4.78;2.50;;;;;;;5.84;76.90;101341.00;5028937;28;20022;-85
2021/05/26 03:17:04;;;;;;;3.78;2.38;;;;;;;5.82;76.75;101345.63;5013924;28;20033;-84
2021/05/26 03:19:31;;;;;;;5.68;2.67;;;;;;;5.93;76.96;101361.59;5009339;28;20029;-85
2021/05/26 03:21:56;;;;;;;7.28;2.40;;;;;;;5.81;77.15;101342.09;5027150;28;20049;-85
2021/05/26 03:24:22;;;;;;;5.32;2.35;;;;;;;5.89;77.14;101347.63;5011710;28;20041;-85
2021/05/26 03:26:47;;;;;;;5.88;2.35;;;;;;;5.79;77.37;101328.03;5013467;28;20038;-83
2021/05/26 03:29:15;;;;;;;5.00;2.38;;;;;;;5.92;77.30;101354.53;5012979;28;20034;-85
2021/05/26 03:31:40;;;;;;;4.40;2.38;;;;;;;5.87;77.51;101354.06;5010250;28;20022;-84
2021/05/26 03:34:06;;;;;;;3.15;1.88;;;;;;;5.51;77.03;101318.88;5017642;28;20058;-84
2021/05/26 03:36:31;;;;;;;4.45;2.15;;;;;;;5.75;76.88;101364.00;5019332;28;20025;-85
2021/05/26 03:38:56;;;;;;;3.85;2.13;;;;;;;5.64;76.81;101356.88;5010031;28;20034;-85
2021/05/26 03:41:22;;;;;;;4.22;2.25;;;;;;;5.57;77.10;101355.69;5009319;28;20025;-85
2021/05/26 03:43:47;;;;;;;4.30;1.98;;;;;;;5.42;77.13;101341.81;5007497;28;20030;-85
2021/05/26 03:46:13;;;;;;;3.03;2.30;;;;;;;5.39;77.58;101354.56;5021046;28;20038;-84
2021/05/26 03:48:38;;;;;;;6.05;2.65;;;;;;;5.13;78.15;101346.06;5013310;28;20033;-84
2021/05/26 03:51:04;;;;;;;6.90;2.72;;;;;;;5.06;78.55;101351.06;5018201;28;20025;-85
2021/05/26 03:53:31;;;;;;;4.03;2.50;;;;;;;5.00;78.73;101341.75;5011812;28;20636;-85
2021/05/26 03:55:56;;;;;;;5.47;2.42;;;;;;;4.95;78.25;101329.75;5011016;28;20026;-84
2021/05/26 03:58:21;;;;;;;3.40;2.20;;;;;;;5.24;78.78;101372.69;5011813;28;20034;-85
2021/05/26 04:00:47;;;;;;;4.47;2.63;;;;;;;5.17;78.06;101350.19;4994833;28;20026;-83
2021/05/26 04:03:12;;;;;;;5.95;2.38;;;;;;;5.24;77.98;101362.03;5013661;28;20080;-82
2021/05/26 04:05:38;;;;;;;5.40;2.42;;;;;;;5.18;77.84;101360.69;5012911;28;20452;-84
2021/05/26 04:08:04;;;;;;;5.47;2.47;;;;;;;5.14;77.87;101363.75;5010715;28;20032;-84
2021/05/26 04:10:29;;;;;;;3.95;2.17;;;;;;;5.04;77.36;101347.66;5014272;28;20025;-84
2021/05/26 04:12:54;;;;;;;5.80;2.30;;;;;;;4.97;77.53;101336.63;5013672;28;20030;-85
2021/05/26 04:15:20;;;;;;;7.00;1.90;;;;;;;5.02;78.24;101349.59;4997722;28;21179;-85
2021/05/26 04:17:45;;;;;;;5.15;2.70;;;;;;;5.00;78.27;101336.41;5003425;28;20032;-85
2021/05/26 04:20:11;;;;;;;5.07;2.58;;;;;;;4.88;78.27;101316.09;5018140;28;20492;-85
2021/05/26 04:22:37;;;;;;;4.00;2.30;;;;;;;5.00;77.88;101336.41;5010287;28;20110;-86
2021/05/26 04:25:04;;;;;;;5.55;2.53;;;;;;;5.04;78.11;101353.84;5014933;28;20554;-85
2021/05/26 04:27:30;;;;;;;4.70;2.60;;;;;;;4.95;77.79;101335.94;5010968;28;20037;-85
2021/05/26 04:29:56;;;;;;;3.85;2.20;;;;;;;4.70;78.06;101307.78;5011348;28;20025;-85
2021/05/26 04:32:21;;;;;;;3.75;2.33;;;;;;;4.76;77.90;101336.59;5009015;28;20109;-85
2021/05/26 04:34:47;;;;;;;4.38;2.45;;;;;;;4.56;78.34;101324.88;5011024;28;20056;-85
2021/05/26 04:37:12;;;;;;;5.47;2.42;;;;;;;4.56;78.35;101316.88;5012803;28;20034;-84
2021/05/26 04:39:38;;;;;;;3.20;2.03;;;;;;;4.70;78.19;101344.22;5011354;28;20404;-85
2021/05/26 04:42:03;;;;;;;4.03;2.08;;;;;;;4.60;78.17;101331.66;5011960;28;20033;-85
2021/05/26 04:44:29;;;;;;;4.97;2.05;;;;;;;4.59;77.84;101335.28;5007703;28;20455;-84
2021/05/26 04:46:54;;;;;;;6.68;2.40;;;;;;;4.57;77.93;101334.53;5007465;28;20549;-84
2021/05/26 04:49:20;;;;;;;4.55;2.33;;;;;;;4.66;78.04;101348.09;5010430;28;20072;-84
2021/05/26 04:51:45;;;;;;;4.70;2.17;;;;;;;4.57;78.56;101328.38;5020491;28;20034;-85
2021/05/26 04:54:10;;;;;;;4.50;2.20;;;;;;;4.57;78.14;101339.03;5010452;28;20091;-85
2021/05/26 04:56:36;;;;;;;6.07;3.10;;;;;;;4.52;78.51;101330.56;5014863;28;20033;-83
2021/05/26 04:59:01;;;;;;;3.70;2.00;;;;;;;4.59;79.16;101342.41;5008006;28;20097;-84
2021/05/26 05:01:27;;;;;;;3.70;2.20;;;;;;;4.58;78.74;101348.72;5008067;28;20037;-84
2021/05/26 05:03:52;;;;;;;7.78;2.55;;;;;;;4.55;79.34;101336.50;5011557;28;20431;-84
2021/05/26 05:06:20;;;;;;;3.40;2.10;;;;;;;4.58;79.84;101333.59;5011012;28;20034;-83
2021/05/26 05:08:46;;;;;;;4.10;2.25;;;;;;;4.70;79.65;101334.41;4992996;28;20487;-85
2021/05/26 05:11:11;;;;;;;3.20;2.08;;;;;;;4.81;79.77;101345.03;5011202;28;20034;-85
2021/05/26 05:13:36;;;;;;;4.95;1.85;;;;;;;4.75;79.49;101321.56;5009764;28;20095;-83
2021/05/26 05:16:02;;;;;;;5.28;2.10;;;;;;;4.87;79.16;101332.19;5024038;28;20025;-85
2021/05/26 05:18:27;;;;;;;5.13;2.42;;;;;;;4.84;79.36;101315.50;5027632;28;20034;-85
2021/05/26 05:20:53;;;;;;;6.70;2.55;;;;;;;5.11;79.08;101338.19;5007445;28;20034;-84
2021/05/26 05:23:18;;;;;;;4.63;1.73;;;;;;;5.10;79.16;101323.16;4994004;28;20068;-85
2021/05/26 05:25:44;;;;;;;3.75;2.05;;;;;;;5.23;78.52;101347.84;4989362;28;20030;-85
2021/05/26 05:28:09;;;;;;;3.05;1.90;;;;;;;5.20;78.76;101332.09;5004393;28;20034;-85
2021/05/26 05:30:34;;;;;;;6.95;2.45;;;;;;;5.38;79.18;101345.72;5007788;28;20048;-85
2021/05/26 05:33:00;;;;;;;4.53;2.10;;;;;;;5.46;79.40;101353.94;5023891;28;20187;-85
2021/05/26 05:35:26;;;;;;;5.43;2.78;;;;;;;5.53;78.98;101348.94;5010104;28;20014;-85
2021/05/26 05:37:51;;;;;;;4.63;2.50;;;;;;;5.58;79.47;101348.53;5024885;28;20021;-85
2021/05/26 05:40:17;;;;;;;3.58;2.53;;;;;;;5.63;79.88;101354.34;5009560;28;20034;-85
2021/05/26 05:42:42;;;;;;;6.35;2.40;;;;;;;5.65;80.24;101355.06;5009539;28;20163;-85
2021/05/26 05:45:08;;;;;;;4.40;2.45;;;;;;;5.64;80.39;101351.56;5014397;28;20034;-85
2021/05/26 05:47:35;;;;;;;6.60;2.70;;;;;;;5.76;80.13;101338.13;5010049;28;20030;-84
2021/05/26 05:50:02;;;;;;;3.53;2.40;;;;;;;5.97;80.00;101354.19;5010541;28;20022;-85
2021/05/26 05:52:27;;;;;;;7.28;2.50;;;;;;;5.90;80.28;101330.66;5009444;28;20640;-84
2021/05/26 05:54:52;;;;;;;6.35;2.80;;;;;;;6.13;80.55;101352.72;5024421;28;20477;-84
2021/05/26 05:57:18;;;;;;;3.95;2.13;;;;;;;6.09;80.45;101350.47;4992277;28;20080;-85
2021/05/26 05:59:43;;;;;;;2.80;2.08;;;;;;;6.07;80.60;101341.75;4992786;28;20149;-85
2021/05/26 06:02:09;;;;;;;3.40;2.17;;;;;;;6.07;81.01;101323.91;5021441;28;20408;-85
2021/05/26 06:04:34;;;;;;;5.68;2.20;;;;;;;6.24;81.13;101333.09;5007927;28;20026;-84
2021/05/26 06:06:59;;;;;;;5.90;2.42;;;;;;;6.23;80.78;101306.53;5011996;28;20133;-84
2021/05/26 06:09:25;;;;;;;7.82;2.85;;;;;;;6.49;80.92;101314.94;5011209;28;20025;-84
2021/05/26 06:11:50;;;;;;;4.80;2.30;;;;;;;6.81;80.04;101346.81;5006861;28;20025;-85
2021/05/26 06:14:19;;;;;;;3.72;2.35;;;;;;;6.88;80.86;101345.28;5012123;28;20026;-85
2021/05/26 06:16:44;;;;;;;3.50;2.08;;;;;;;7.14;80.12;101345.59;5021371;28;20049;-85
2021/05/26 06:19:10;;;;;;;4.18;2.53;;;;;;;7.25;79.83;101334.78;5028411;28;20535;-85
2021/05/26 06:21:35;;;;;;;4.65;2.22;;;;;;;7.51;79.16;101341.38;5011853;28;20030;-85
2021/05/26 06:24:01;;;;;;;4.32;2.05;;;;;;;7.69;79.03;101358.44;5012468;28;20108;-84
2021/05/26 06:26:31;;;;;;;5.93;2.05;;;;;;;7.74;79.35;101352.66;5013660;28;20034;-84
2021/05/26 06:28:56;;;;;;;4.53;2.35;;;;;;;7.84;79.15;101348.97;5012656;28;20022;-85
2021/05/26 06:31:22;;;;;;;4.82;2.33;;;;;;;8.00;78.94;101347.53;4994651;28;20040;-84
2021/05/26 06:33:47;;;;;;;3.92;2.38;;;;;;;8.22;78.25;101359.72;5010237;28;20014;-84
2021/05/26 06:36:12;;;;;;;5.78;2.28;;;;;;;8.40;77.21;101359.84;5012182;28;20526;-84
2021/05/26 06:38:39;;;;;;;7.03;2.20;;;;;;;8.51;76.73;101365.84;5010653;28;20026;-83
2021/05/26 06:41:05;;;;;;;8.02;2.53;;;;;;;8.57;75.97;101361.75;5019300;28;20140;-85
2021/05/26 06:43:31;;;;;;;4.22;2.40;;;;;;;8.56;75.83;101368.09;5018281;28;20045;-83
2021/05/26 06:45:56;;;;;;;5.88;2.55;;;;;;;8.53;75.65;101363.88;5002302;28;20041;-85
2021/05/26 06:48:22;;;;;;;5.28;2.15;;;;;;;8.59;75.56;101363.28;5008593;28;20034;-84
2021/05/26 06:50:48;;;;;;;7.20;2.40;;;;;;;8.76;75.81;101377.75;5009995;28;20084;-85
2021/05/26 06:53:13;;;;;;;7.20;2.45;;;;;;;8.73;75.92;101364.66;4994634;28;20029;-84
2021/05/26 06:55:39;;;;;;;5.85;2.35;;;;;;;8.93;75.36;101375.25;5020710;28;20053;-84
2021/05/26 06:58:06;;;;;;;6.63;2.85;;;;;;;9.06;75.04;101373.06;5016906;28;20118;-83
2021/05/26 07:00:32;;;;;;;5.93;2.17;;;;;;;9.18;75.11;101371.88;5018551;28;20026;-84
2021/05/26 07:02:57;;;;;;;5.57;2.15;;;;;;;9.22;74.67;101365.19;5017240;28;20036;-85
2021/05/26 07:05:23;;;;;;;6.05;2.10;;;;;;;9.47;74.15;101378.84;5016347;28;20033;-84
2021/05/26 07:07:48;;;;;;;12.70;2.47;;;;;;;9.51;73.75;101368.66;5017372;28;20022;-84
2021/05/26 07:10:16;;;;;;;6.93;2.28;;;;;;;9.41;73.73;101341.88;5000573;28;20038;-85
2021/05/26 07:12:41;;;;;;;6.05;2.10;;;;;;;9.77;73.01;101379.44;5017105;28;21269;-85
2021/05/26 07:15:07;;;;;;;6.35;2.13;;;;;;;9.75;72.92;101366.16;5019930;28;20030;-83
2021/05/26 07:17:32;;;;;;;6.05;2.35;;;;;;;9.74;72.78;101350.19;5017021;28;20021;-84
2021/05/26 07:19:59;;;;;;;4.13;1.85;;;;;;;9.94;72.28;101369.66;5015835;28;20452;-85
2021/05/26 07:22:24;;;;;;;5.65;1.77;;;;;;;9.99;72.19;101361.97;5001287;28;20119;-84
2021/05/26 07:24:50;;;;;;;6.80;2.10;;;;;;;9.90;71.93;101347.66;5013902;28;20124;-84
2021/05/26 07:27:15;;;;;;;5.57;2.90;;;;;;;10.00;71.20;101352.91;5009610;28;20033;-84
2021/05/26 07:29:40;;;;;;;7.40;2.13;;;;;;;10.03;71.10;101337.34;4996672;28;20057;-84
2021/05/26 07:32:06;;;;;;;4.18;2.17;;;;;;;10.30;71.24;101365.06;5007207;28;20473;-84
2021/05/26 07:34:31;;;;;;;5.60;2.50;;;;;;;10.39;70.95;101364.09;4991607;28;20022;-84
2021/05/26 07:36:57;;;;;;;3.58;2.00;;;;;;;10.34;70.36;101353.81;5010030;28;20021;-84
2021/05/26 07:39:24;;;;;;;4.68;2.10;;;;;;;10.49;70.44;101358.63;5009477;28;20405;-84
2021/05/26 07:41:49;;;;;;;4.95;2.13;;;;;;;10.67;69.88;101366.59;5012486;28;20026;-85
2021/05/26 07:44:15;;;;;;;4.43;1.85;;;;;;;10.57;69.18;101351.44;5010197;28;20018;-85
2021/05/26 07:46:40;;;;;;;3.13;2.00;;;;;;;10.75;68.83;101358.56;5010107;28;20053;-84
2021/05/26 07:49:06;;;;;;;13.18;4.93;;;;;;;10.84;68.54;101357.59;5010624;28;20061;-85
2021/05/26 07:51:33;;;;;;;7.93;2.33;;;;;;;10.89;68.35;101340.97;5026118;28;20544;-85
2021/05/26 07:54:00;;;;;;;6.65;2.30;;;;;;;11.14;67.60;101350.78;5010771;28;20579;-85
2021/05/26 07:56:27;;;;;;;7.72;2.00;;;;;;;11.29;67.17;101353.66;5011537;28;20014;-85
2021/05/26 07:58:53;;;;;;;6.03;2.10;;;;;;;11.40;67.31;101353.31;5009409;28;20053;-85
2021/05/26 08:01:18;;;;;;;6.40;2.63;;;;;;;11.38;66.36;101339.22;5009451;28;20072;-85
2021/05/26 08:03:43;;;;;;;7.13;2.40;;;;;;;11.40;66.36;101347.94;5009044;28;20044;-84
2021/05/26 08:06:10;;;;;;;10.23;2.50;;;;;;;11.42;66.35;101332.47;5016760;28;20129;-86
2021/05/26 08:08:36;;;;;;;3.72;1.88;;;;;;;11.57;65.37;101338.03;5009328;28;20029;-84
2021/05/26 08:11:01;;;;;;;8.10;2.08;;;;;;;11.79;65.14;101330.28;5008494;28;20026;-85
2021/05/26 08:13:27;;;;;;;10.65;3.30;;;;;;;11.86;64.61;101332.16;5009701;28;20408;-85
2021/05/26 08:15:52;;;;;;;7.30;2.80;;;;;;;11.81;64.78;101318.31;5005892;28;20018;-84
2021/05/26 08:18:21;;;;;;;5.70;2.05;;;;;;;11.76;65.02;101336.84;5006857;28;20029;-85
2021/05/26 08:20:47;;;;;;;3.72;1.83;;;;;;;11.63;65.14;101329.28;4994359;28;20025;-86
2021/05/26 08:23:14;;;;;;;6.28;2.83;;;;;;;11.56;65.21;101336.34;5005936;28;20056;-85
2021/05/26 08:25:39;;;;;;;5.57;1.90;;;;;;;11.88;64.54;101348.16;4995239;28;20026;-84
2021/05/26 08:28:05;;;;;;;6.70;1.70;;;;;;;12.27;63.86;101342.84;5007110;28;20095;-85
2021/05/26 08:30:31;;;;;;;5.82;1.83;;;;;;;12.67;62.66;101350.97;5021739;28;20026;-85
2021/05/26 08:32:56;;;;;;;6.70;1.95;;;;;;;12.86;61.87;101342.47;5002947;28;20499;-85
2021/05/26 08:35:22;;;;;;;5.05;2.20;;;;;;;12.42;61.40;101309.78;5008872;28;20026;-85
2021/05/26 08:37:47;;;;;;;4.90;1.52;;;;;;;12.25;62.05;101339.50;5010858;28;20532;-84
2021/05/26 08:40:13;;;;;;;3.47;1.65;;;;;;;12.30;62.40;101333.56;5019317;28;20052;-85
2021/05/26 08:42:42;;;;;;;7.05;2.40;;;;;;;12.45;63.38;101334.53;5011169;28;20057;-86
2021/05/26 08:45:08;;;;;;;3.15;1.70;;;;;;;12.76;61.82;101328.34;5012907;28;20032;-85
2021/05/26 08:47:35;;;;;;;5.68;1.85;;;;;;;13.25;60.98;101348.81;5011882;28;20022;-85
2021/05/26 08:50:00;;;;;;;2.63;1.58;;;;;;;13.48;59.33;101344.31;5035478;28;20904;-85
2021/05/26 08:52:26;;;;;;;4.25;1.60;;;;;;;13.06;60.07;101310.47;5010908;28;20036;-85
2021/05/26 08:54:51;;;;;;;4.63;1.80;;;;;;;12.94;60.15;101322.69;5011648;28;20018;-85
2021/05/26 08:57:17;;;;;;;3.63;1.80;;;;;;;13.16;58.60;101329.13;5010967;28;20025;-85
2021/05/26 08:59:43;;;;;;;6.53;2.63;;;;;;;13.55;57.65;101336.31;5008359;28;20555;-86
2021/05/26 09:02:10;;;;;;;3.50;1.60;;;;;;;13.48;58.13;101340.75;5007713;28;20017;-85
2021/05/26 09:04:35;;;;;;;3.95;2.30;;;;;;;13.45;57.98;101338.44;5008083;28;20030;-84
2021/05/26 09:07:08;;;;;;;4.35;1.67;;;;;;;13.16;57.93;101340.78;5001642;28;20032;-86
2021/05/26 09:09:45;;;;;;;5.30;1.52;;;;;;;12.66;58.22;101328.56;5017288;28;20014;-85
2021/05/26 09:12:11;;;;;;;3.95;1.63;;;;;;;12.84;59.19;101341.81;5012453;28;20435;-85
2021/05/26 09:14:37;;;;;;;3.13;1.65;;;;;;;12.75;59.49;101315.88;5011702;28;20021;-85
2021/05/26 09:17:10;;;;;;;2.22;1.45;;;;;;;12.82;58.55;101341.13;5012065;28;20022;-86
2021/05/26 09:19:36;;;;;;;2.55;1.60;;;;;;;13.07;57.95;101331.06;5019773;28;20029;-85
2021/05/26 09:22:19;;;;;;;4.43;1.80;;;;;;;13.47;57.71;101334.53;5011987;28;20033;-85
2021/05/26 09:24:45;;;;;;;;;;;;;;;13.62;57.25;101330.00;4987313;28;20026;-85
2021/05/26 09:27:12;;;;;;;3.70;2.03;;;;;;;13.87;56.45;101327.09;5016436;28;19920;-85
2021/05/26 09:29:44;;;;;;;6.07;1.48;;;;;;;13.96;55.81;101320.56;5012773;28;20068;-85
2021/05/26 09:32:13;;;;;;;5.28;1.70;;;;;;;14.28;54.93;101323.94;5010063;28;20042;-86
2021/05/26 09:34:40;;;;;;;4.10;1.80;;;;;;;13.95;55.45;101312.66;5019477;28;20061;-85
2021/05/26 09:37:06;;;;;;;8.90;2.20;;;;;;;13.77;55.25;101313.00;5016341;28;20009;-86
2021/05/26 09:40:03;;;;;;;4.03;1.58;;;;;;;13.93;56.20;101312.00;5012676;28;20025;-86
2021/05/26 09:42:36;;;;;;;3.63;1.60;;;;;;;13.84;55.18;101305.84;5015807;28;20030;-86
2021/05/26 09:45:19;;;;;;;5.30;1.67;;;;;;;13.81;55.04;101314.28;5026766;28;20026;-85
2021/05/26 09:47:50;;;;;;;3.95;1.50;;;;;;;14.27;53.67;101308.75;5012378;28;20038;-84
2021/05/26 09:50:19;;;;;;;6.38;1.60;;;;;;;14.92;53.07;101305.25;5005096;28;20038;-86
2021/05/26 09:53:04;;;;;;;4.45;1.23;;;;;;;15.24;52.03;101308.50;5015391;28;20122;-85
2021/05/26 09:55:31;;;;;;;3.75;1.30;;;;;;;14.82;51.06;101298.44;5012076;28;20026;-85
2021/05/26 09:57:57;;;;;;;3.50;1.23;;;;;;;14.85;50.46;101279.94;5025797;28;20073;-86
2021/05/26 10:00:23;;;;;;;1.88;1.40;;;;;;;15.00;50.87;101296.13;5019492;28;20018;-85
2021/05/26 10:02:50;;;;;;;2.75;1.40;;;;;;;15.34;50.84;101298.16;5022811;28;20021;-86
2021/05/26 10:05:17;;;;;;;2.83;1.48;;;;;;;15.77;50.31;101303.56;5014097;28;20017;-84
2021/05/26 10:07:44;;;;;;;4.15;1.50;;;;;;;15.92;47.60;101310.75;5018497;28;20041;-86
2021/05/26 10:10:11;;;;;;;4.93;1.45;;;;;;;15.97;46.65;101281.19;5015126;28;20030;-85
2021/05/26 10:12:38;;;;;;;3.60;1.60;;;;;;;16.34;48.31;101303.53;5016276;28;20041;-85
2021/05/26 10:15:07;;;;;;;4.32;1.60;;;;;;;16.51;48.29;101304.84;5015074;28;20102;-86
2021/05/26 10:17:37;;;;;;;4.55;1.70;;;;;;;16.73;48.25;101310.19;5014011;28;20028;-84
2021/05/26 10:20:09;;;;;;;5.68;1.73;;;;;;;16.60;47.26;101300.94;5015514;28;20485;-85
2021/05/26 10:22:35;;;;;;;3.47;1.25;;;;;;;16.56;46.62;101299.66;5018475;28;20104;-85
2021/05/26 10:25:01;;;;;;;3.17;1.40;;;;;;;16.67;45.67;101306.38;5013064;28;20380;-86
2021/05/26 10:27:36;;;;;;;4.97;1.45;;;;;;;16.82;45.30;101295.41;5022427;28;21292;-85
2021/05/26 10:30:02;;;;;;;4.05;1.30;;;;;;;17.01;44.87;101310.91;5015756;28;20050;-85
2021/05/26 10:32:32;;;;;;;1.90;1.20;;;;;;;17.25;44.87;101308.66;5014787;28;20037;-85
2021/05/26 10:34:58;;;;;;;3.47;2.00;;;;;;;17.50;44.71;101315.19;5019189;28;20029;-86
2021/05/26 10:37:25;;;;;;;3.35;2.08;;;;;;;17.14;44.13;101301.97;5020052;28;20030;-84
2021/05/26 10:39:51;;;;;;;5.90;1.83;;;;;;;16.98;44.38;101302.34;5013728;28;20087;-85
2021/05/26 10:42:43;;;;;;;5.15;1.45;;;;;;;16.61;43.76;101310.75;5006546;28;20059;-84
2021/05/26 10:45:10;;;;;;;5.15;1.50;;;;;;;16.62;43.32;101308.88;5015074;28;20037;-85
2021/05/26 10:47:38;;;;;;;2.30;1.48;;;;;;;16.79;44.10;101309.41;5014945;28;20108;-83
2021/05/26 10:50:25;;;;;;;6.47;1.95;;;;;;;17.02;44.19;101312.59;5007508;28;20081;-85
2021/05/26 10:52:57;;;;;;;3.63;1.65;;;;;;;17.02;43.87;101314.50;5029901;28;20091;-84
2021/05/26 10:55:43;;;;;;;4.00;1.35;;;;;;;16.80;43.60;101313.78;5031521;28;20084;-85
2021/05/26 10:58:19;;;;;;;2.88;1.20;;;;;;;16.84;43.74;101315.88;5017422;28;20362;-85
2021/05/26 11:00:57;;;;;;;6.03;1.55;;;;;;;17.21;43.08;101312.84;5013577;28;20564;-85
2021/05/26 11:03:26;;;;;;;5.70;1.88;;;;;;;17.11;43.48;101315.97;5014927;28;20044;-84
2021/05/26 11:05:55;;;;;;;4.22;1.55;;;;;;;17.39;43.53;101313.09;5013075;28;20456;-85
2021/05/26 11:08:56;;;;;;;3.97;1.60;;;;;;;17.28;43.01;101309.13;5017416;28;20029;-85
2021/05/26 11:11:22;;;;;;;4.13;1.33;;;;;;;17.54;43.30;101302.88;5012977;28;20032;-85
2021/05/26 11:14:10;;;;;;;5.53;1.73;;;;;;;17.66;42.93;101304.94;5013266;28;20392;-85
2021/05/26 11:16:51;;;;;;;2.50;1.20;;;;;;;17.72;42.73;101307.66;5019554;28;20025;-85
2021/05/26 11:19:23;;;;;;;4.75;1.75;;;;;;;17.80;41.67;101304.75;5011010;28;20571;-85
2021/05/26 11:22:02;;;;;;;3.17;1.30;;;;;;;17.48;43.10;101291.97;5017018;28;20021;-85
2021/05/26 11:24:33;;;;;;;2.83;1.45;;;;;;;17.85;42.82;101306.84;5012284;28;20057;-85
2021/05/26 11:26:59;;;;;;;6.45;1.50;;;;;;;18.04;42.21;101299.69;5034123;28;20633;-85
2021/05/26 11:29:32;;;;;;;5.60;1.45;;;;;;;17.88;42.08;101298.25;5011970;28;20018;-86
2021/05/26 11:32:14;;;;;;;;;;;;;;;17.60;42.01;101301.19;5008047;28;20104;-84
2021/05/26 11:34:41;;;;;;;5.90;1.52;;;;;;;17.22;43.13;101303.66;5011511;28;19944;-86